Time;durP1;ratioP1;P1;durP2;ratioP2;P2;SDS_P1;SDS_P2;PMS_P1;PMS_P2;Temp;Humidity;BMP_temperature;BMP_pressure;BME280_temperature;BME280_humidity;BME280_pressure;Samples;Min_cycle;Max_cycle;Signal;HPM_P1;HPM_P2
2021/03/20 00:00:31;;;;;;;58.15;30.55;;;1.90;96.20;;;;;;5054072;28;20017;-74
2021/03/20 00:02:57;;;;;;;58.35;30.95;;;1.90;96.20;;;;;;5052706;28;20111;-74
2021/03/20 00:05:23;;;;;;;49.55;26.80;;;1.90;96.20;;;;;;5053521;28;20491;-74
2021/03/20 00:07:53;;;;;;;50.22;27.08;;;2.00;96.20;;;;;;5052351;28;20029;-74
2021/03/20 00:10:21;;;;;;;48.35;26.55;;;1.90;96.20;;;;;;5053908;28;20021;-74
2021/03/20 00:12:49;;;;;;;49.10;27.90;;;2.00;96.10;;;;;;5052525;28;20033;-74
2021/03/20 00:15:17;;;;;;;55.08;28.95;;;2.00;96.10;;;;;;5053752;28;20455;-74
2021/03/20 00:17:43;;;;;;;57.03;27.88;;;2.00;96.10;;;;;;5053793;28;20021;-74
2021/03/20 00:20:13;;;;;;;62.45;30.35;;;1.90;96.10;;;;;;5053805;28;20024;-74
2021/03/20 00:22:38;;;;;;;51.15;28.98;;;1.90;96.10;;;;;;5052520;28;20749;-74
2021/03/20 00:25:07;;;;;;;70.47;36.78;;;1.90;96.10;;;;;;5053241;28;20029;-74
2021/03/20 00:27:33;;;;;;;72.55;35.70;;;1.90;96.30;;;;;;5053728;28;20033;-74
2021/03/20 00:29:59;;;;;;;59.08;31.92;;;1.90;96.40;;;;;;5053615;28;20155;-74
2021/03/20 00:32:24;;;;;;;53.78;28.90;;;1.90;96.30;;;;;;5053266;28;20504;-74
2021/03/20 00:34:50;;;;;;;73.72;33.83;;;1.80;96.20;;;;;;5052390;28;20532;-74
2021/03/20 00:37:16;;;;;;;56.90;29.65;;;1.90;96.30;;;;;;5052362;28;20405;-74
2021/03/20 00:39:43;;;;;;;61.67;30.98;;;1.90;96.30;;;;;;5053490;28;20025;-74
2021/03/20 00:42:09;;;;;;;53.42;28.50;;;1.90;96.30;;;;;;5053250;28;20033;-74
2021/03/20 00:44:35;;;;;;;45.35;24.13;;;1.80;96.40;;;;;;5053370;28;20474;-74
2021/03/20 00:47:01;;;;;;;60.67;30.48;;;1.80;96.30;;;;;;5053401;28;20383;-74
2021/03/20 00:49:27;;;;;;;48.42;26.35;;;1.90;96.30;;;;;;5053445;28;20040;-74
2021/03/20 00:51:52;;;;;;;67.82;32.78;;;1.90;96.30;;;;;;5053270;28;20025;-74
2021/03/20 00:54:18;;;;;;;53.55;28.27;;;1.90;96.40;;;;;;5053608;28;20096;-74
2021/03/20 00:56:44;;;;;;;48.78;28.42;;;1.90;96.30;;;;;;5053392;28;20406;-74
2021/03/20 00:59:09;;;;;;;58.67;29.95;;;1.90;96.30;;;;;;5053225;28;20029;-74
2021/03/20 01:01:35;;;;;;;53.85;27.88;;;1.90;96.30;;;;;;5053520;28;20021;-74
2021/03/20 01:04:01;;;;;;;62.22;34.25;;;1.80;96.40;;;;;;5052010;28;20057;-74
2021/03/20 01:06:28;;;;;;;55.08;27.83;;;1.80;96.40;;;;;;5053284;28;20092;-74
2021/03/20 01:08:55;;;;;;;57.67;28.55;;;1.90;96.40;;;;;;5053638;28;20021;-74
2021/03/20 01:11:25;;;;;;;51.67;27.83;;;1.80;96.50;;;;;;5053025;28;20021;-74
2021/03/20 01:13:50;;;;;;;65.10;31.60;;;1.90;96.40;;;;;;5053254;28;20052;-74
2021/03/20 01:16:19;;;;;;;51.92;28.05;;;1.90;96.50;;;;;;5053287;28;20060;-74
2021/03/20 01:18:45;;;;;;;61.08;29.08;;;1.90;96.50;;;;;;5053098;28;20025;-74
2021/03/20 01:21:12;;;;;;;53.35;28.13;;;1.90;96.40;;;;;;5053049;28;20035;-74
2021/03/20 01:23:38;;;;;;;65.10;30.55;;;1.90;96.40;;;;;;5052923;28;20032;-74
2021/03/20 01:26:05;;;;;;;50.60;26.77;;;1.80;96.50;;;;;;5051633;28;20040;-74
2021/03/20 01:28:33;;;;;;;70.25;33.05;;;1.90;96.40;;;;;;5052842;28;20108;-74
2021/03/20 01:31:00;;;;;;;60.28;30.15;;;1.80;96.50;;;;;;5050804;28;20569;-74
2021/03/20 01:33:26;;;;;;;46.78;25.17;;;1.80;96.60;;;;;;5051203;28;20068;-74
2021/03/20 01:35:53;;;;;;;42.05;22.33;;;1.80;96.50;;;;;;5053063;28;20056;-74
2021/03/20 01:38:19;;;;;;;41.03;23.85;;;1.80;96.50;;;;;;5053188;28;20100;-74
2021/03/20 01:40:55;;;;;;;43.22;24.45;;;1.80;96.40;;;;;;5052976;28;20024;-74
2021/03/20 01:43:24;;;;;;;43.42;22.90;;;1.90;96.50;;;;;;5052961;28;20055;-74
2021/03/20 01:45:50;;;;;;;37.75;21.10;;;1.80;96.50;;;;;;5052578;28;20031;-74
2021/03/20 01:48:33;;;;;;;34.92;20.05;;;1.80;96.50;;;;;;5052879;28;20112;-74
2021/03/20 01:51:02;;;;;;;43.60;23.65;;;1.90;96.50;;;;;;5051634;28;20056;-74
2021/03/20 01:53:42;;;;;;;46.47;21.93;;;1.90;96.40;;;;;;5052831;28;20032;-74
2021/03/20 01:56:21;;;;;;;40.92;21.35;;;1.80;96.50;;;;;;5053152;28;20264;-74
2021/03/20 01:58:51;;;;;;;34.30;18.55;;;1.80;96.40;;;;;;5056345;28;20348;-74
2021/03/20 02:01:28;;;;;;;44.40;23.67;;;1.80;96.40;;;;;;5054165;28;20016;-74
2021/03/20 02:03:55;;;;;;;40.28;19.83;;;1.90;96.50;;;;;;5056399;28;20060;-74
2021/03/20 02:06:22;;;;;;;60.38;27.83;;;1.80;96.50;;;;;;5056275;28;20051;-74
2021/03/20 02:08:48;;;;;;;58.47;26.30;;;1.80;96.60;;;;;;5054942;28;20422;-74
2021/03/20 02:11:16;;;;;;;64.68;30.95;;;1.80;96.70;;;;;;5056130;28;20026;-74
2021/03/20 02:13:49;;;;;;;54.05;26.02;;;1.70;96.70;;;;;;5055858;28;20032;-74
2021/03/20 02:16:20;;;;;;;59.30;27.17;;;1.60;96.70;;;;;;5056211;28;20032;-74
2021/03/20 02:19:12;;;;;;;49.70;24.88;;;1.60;96.80;;;;;;5054401;28;20021;-74
2021/03/20 02:21:48;;;;;;;36.28;20.65;;;1.60;97.10;;;;;;5056188;28;20957;-74
2021/03/20 02:25:00;;;;;;;32.15;18.30;;;1.60;97.10;;;;;;5055981;28;20052;-74
2021/03/20 02:28:02;;;;;;;30.77;17.50;;;1.60;96.90;;;;;;5048738;28;20057;-74
2021/03/20 02:30:59;;;;;;;30.52;17.70;;;1.60;97.00;;;;;;5055682;28;20025;-74
2021/03/20 02:33:37;;;;;;;27.40;16.73;;;1.70;96.90;;;;;;5032350;28;20510;-74
2021/03/20 02:36:18;;;;;;;25.92;15.70;;;1.70;96.80;;;;;;5055327;28;20032;-73
2021/03/20 02:39:22;;;;;;;25.55;15.63;;;1.70;96.70;;;;;;5055633;28;20474;-73
2021/03/20 02:41:53;;;;;;;32.40;17.77;;;1.80;96.70;;;;;;5016875;28;20391;-74
2021/03/20 02:44:31;;;;;;;;;;;1.80;96.60;;;;;;5034028;28;20032;-74
2021/03/20 02:47:04;;;;;;;36.42;18.75;;;1.80;96.70;;;;;;5046296;28;19951;-74
2021/03/20 02:49:44;;;;;;;36.80;17.80;;;1.70;96.70;;;;;;5055362;28;20035;-74
2021/03/20 02:52:13;;;;;;;;;;;1.70;96.70;;;;;;5054155;28;20486;-73
2021/03/20 02:54:47;;;;;;;21.77;13.82;;;1.70;96.70;;;;;;5055314;28;19912;-73
2021/03/20 02:57:24;;;;;;;36.35;18.55;;;1.70;96.70;;;;;;5054978;28;20107;-73
2021/03/20 03:00:00;;;;;;;27.23;15.50;;;1.70;96.70;;;;;;5054049;28;20024;-73
2021/03/20 03:02:29;;;;;;;23.95;15.07;;;1.60;96.70;;;;;;5052871;28;20026;-73
2021/03/20 03:05:09;;;;;;;30.73;17.65;;;1.60;96.70;;;;;;5055088;28;20036;-73
2021/03/20 03:08:07;;;;;;;23.08;14.35;;;1.70;96.70;;;;;;5054754;28;20082;-73
2021/03/20 03:10:40;;;;;;;23.20;14.88;;;1.70;96.70;;;;;;5054832;28;20021;-73
2021/03/20 03:13:26;;;;;;;23.30;14.55;;;1.70;96.70;;;;;;5054813;28;20029;-73
2021/03/20 03:15:56;;;;;;;24.58;15.13;;;1.70;96.70;;;;;;5054458;28;20079;-73
2021/03/20 03:18:25;;;;;;;;;;;1.70;96.70;;;;;;5055351;28;20024;-73
2021/03/20 03:20:55;;;;;;;35.53;18.42;;;1.70;96.70;;;;;;5052864;28;19909;-73
2021/03/20 03:23:27;;;;;;;28.45;16.98;;;1.70;96.70;;;;;;5054700;28;20021;-73
2021/03/20 03:26:21;;;;;;;27.08;15.57;;;1.70;96.70;;;;;;5053982;28;20037;-73
2021/03/20 03:28:51;;;;;;;31.30;18.35;;;1.70;96.60;;;;;;5050383;28;20033;-73
2021/03/20 03:31:42;;;;;;;37.58;19.85;;;1.70;96.60;;;;;;5052771;28;20127;-73
2021/03/20 03:34:40;;;;;;;36.83;19.88;;;1.70;96.60;;;;;;5054541;28;20111;-73
2021/03/20 03:37:15;;;;;;;24.85;16.10;;;1.70;96.70;;;;;;5053309;28;20021;-73
2021/03/20 03:39:51;;;;;;;38.30;20.98;;;1.70;96.70;;;;;;5054809;28;20467;-73
2021/03/20 03:42:20;;;;;;;34.70;19.00;;;1.70;96.70;;;;;;5054263;28;20361;-73
2021/03/20 03:44:47;;;;;;;36.75;19.55;;;1.70;96.70;;;;;;5053037;28;20059;-73
2021/03/20 03:47:31;;;;;;;42.47;20.52;;;1.60;96.80;;;;;;5053901;28;20107;-73
2021/03/20 03:49:59;;;;;;;37.30;19.67;;;1.60;96.90;;;;;;5053904;28;20032;-73
2021/03/20 03:52:25;;;;;;;39.05;20.27;;;1.60;97.00;;;;;;5054068;28;20056;-73
2021/03/20 03:54:51;;;;;;;32.08;18.40;;;1.50;97.10;;;;;;5053498;28;20055;-73
2021/03/20 03:57:41;;;;;;;32.35;17.80;;;1.60;97.00;;;;;;5052862;28;20043;-74
2021/03/20 04:00:16;;;;;;;34.67;19.42;;;1.60;96.90;;;;;;5051673;28;20051;-75
2021/03/20 04:03:24;;;;;;;45.88;21.80;;;1.70;97.00;;;;;;5053506;28;20360;-75
2021/03/20 04:06:10;;;;;;;39.00;21.70;;;1.70;96.90;;;;;;5045843;28;20021;-74
2021/03/20 04:08:43;;;;;;;35.10;18.85;;;1.60;97.00;;;;;;5051262;28;20033;-74
2021/03/20 04:11:25;;;;;;;35.85;19.20;;;1.60;96.90;;;;;;5053129;28;20721;-75
2021/03/20 04:14:09;;;;;;;35.55;18.80;;;1.70;96.90;;;;;;5053681;28;20083;-75
2021/03/20 04:17:00;;;;;;;32.63;19.05;;;1.70;96.80;;;;;;5051623;28;20028;-75
2021/03/20 04:19:29;;;;;;;57.58;26.13;;;1.70;96.80;;;;;;5052378;28;20025;-75
2021/03/20 04:21:56;;;;;;;45.95;22.92;;;1.70;97.00;;;;;;5053612;28;20525;-75
2021/03/20 04:24:22;;;;;;;42.67;22.50;;;1.60;97.00;;;;;;5053670;28;20033;-75
2021/03/20 04:26:56;;;;;;;43.33;22.65;;;1.70;96.90;;;;;;5053702;28;20083;-75
2021/03/20 04:29:34;;;;;;;48.60;24.27;;;1.70;97.00;;;;;;5052399;28;20546;-75
2021/03/20 04:32:15;;;;;;;47.45;23.98;;;1.70;96.90;;;;;;5051962;28;20076;-75
2021/03/20 04:35:10;;;;;;;41.70;22.35;;;1.70;96.90;;;;;;5052152;28;20112;-75
2021/03/20 04:37:39;;;;;;;50.22;25.08;;;1.70;96.90;;;;;;5032796;28;20038;-75
2021/03/20 04:40:10;;;;;;;34.65;19.77;;;1.80;96.90;;;;;;5033630;28;20490;-76
2021/03/20 04:42:38;;;;;;;46.38;24.33;;;1.90;96.80;;;;;;5051217;28;20037;-76
2021/03/20 04:45:40;;;;;;;33.00;20.02;;;1.90;96.70;;;;;;5053081;28;20041;-75
2021/03/20 04:48:30;;;;;;;47.85;24.98;;;2.00;96.60;;;;;;5047480;28;20037;-75
2021/03/20 04:51:21;;;;;;;49.27;24.90;;;2.10;96.60;;;;;;5052830;28;20104;-75
2021/03/20 04:54:06;;;;;;;41.40;24.65;;;2.10;96.50;;;;;;5046060;28;20332;-75
2021/03/20 04:56:40;;;;;;;43.60;25.30;;;2.10;96.40;;;;;;5053492;28;20025;-75
2021/03/20 04:59:14;;;;;;;39.85;24.80;;;2.20;96.40;;;;;;5053308;28;20025;-75
2021/03/20 05:01:49;;;;;;;39.33;23.52;;;2.20;96.30;;;;;;5051612;28;20383;-75
2021/03/20 05:04:29;;;;;;;37.70;22.63;;;2.30;96.10;;;;;;5051125;28;20085;-75
2021/03/20 05:06:59;;;;;;;38.30;22.58;;;2.30;96.00;;;;;;5052738;28;20056;-75
2021/03/20 05:09:27;;;;;;;34.92;19.48;;;2.30;96.10;;;;;;5053111;28;20037;-75
2021/03/20 05:11:57;;;;;;;36.28;20.58;;;2.30;96.10;;;;;;5053131;28;20036;-75
2021/03/20 05:14:40;;;;;;;45.10;23.38;;;2.30;96.10;;;;;;5053201;28;20025;-75
2021/03/20 05:17:17;;;;;;;40.55;22.08;;;2.30;96.10;;;;;;5052048;28;20053;-75
2021/03/20 05:19:43;;;;;;;33.40;21.25;;;2.20;96.10;;;;;;5052501;28;20025;-75
2021/03/20 05:22:19;;;;;;;33.83;21.33;;;2.20;96.10;;;;;;5033850;28;20033;-76
2021/03/20 05:24:47;;;;;;;33.70;19.45;;;2.20;96.20;;;;;;5034184;28;20550;-75
2021/03/20 05:27:18;;;;;;;40.85;23.08;;;2.20;96.30;;;;;;5033119;28;20035;-78
2021/03/20 05:29:44;;;;;;;28.63;18.15;;;2.20;96.40;;;;;;5043224;28;20593;-77
2021/03/20 05:32:14;;;;;;;28.27;18.63;;;2.10;96.30;;;;;;5052973;28;20079;-77
2021/03/20 05:34:42;;;;;;;27.30;16.73;;;2.10;96.30;;;;;;5054775;28;20028;-77
2021/03/20 05:37:18;;;;;;;27.67;17.45;;;2.20;96.40;;;;;;5054824;28;20408;-77
2021/03/20 05:39:44;;;;;;;36.60;20.98;;;2.30;96.40;;;;;;5053534;28;20025;-77
2021/03/20 05:42:34;;;;;;;31.75;19.77;;;2.40;96.30;;;;;;5054569;28;20112;-77
2021/03/20 05:45:22;;;;;;;43.70;25.10;;;2.40;96.30;;;;;;5053749;28;20034;-77
2021/03/20 05:48:20;;;;;;;37.35;22.70;;;2.40;96.20;;;;;;5053730;28;20036;-77
2021/03/20 05:51:00;;;;;;;31.98;19.27;;;2.40;96.10;;;;;;5054402;28;20447;-77
2021/03/20 05:53:53;;;;;;;34.45;20.80;;;2.40;96.20;;;;;;5054448;28;20382;-77
2021/03/20 05:56:45;;;;;;;42.53;21.30;;;2.50;96.10;;;;;;5053364;28;20048;-77
2021/03/20 05:59:28;;;;;;;45.72;25.95;;;2.50;96.00;;;;;;5053093;28;20021;-77
2021/03/20 06:02:03;;;;;;;50.08;27.33;;;2.50;96.00;;;;;;5053057;28;20100;-78
2021/03/20 06:04:31;;;;;;;61.08;33.55;;;2.50;96.00;;;;;;5052983;28;20429;-77
2021/03/20 06:07:16;;;;;;;81.22;39.47;;;2.50;95.90;;;;;;5054451;28;20029;-78
2021/03/20 06:10:26;;;;;;;95.85;44.90;;;2.50;96.00;;;;;;5053112;28;20021;-77
2021/03/20 06:13:10;;;;;;;155.70;65.50;;;2.50;95.80;;;;;;5032104;28;20032;-77
2021/03/20 06:16:05;;;;;;;108.93;50.97;;;2.50;95.80;;;;;;5015703;28;20258;-78
2021/03/20 06:18:46;;;;;;;100.03;48.50;;;2.50;95.90;;;;;;5046361;28;20390;-78
2021/03/20 06:21:42;;;;;;;118.03;54.20;;;2.50;95.90;;;;;;5054274;28;20075;-78
2021/03/20 06:24:33;;;;;;;91.82;45.17;;;2.40;95.80;;;;;;5052859;28;20383;-78
2021/03/20 06:27:00;;;;;;;89.88;46.22;;;2.40;95.90;;;;;;5034038;28;20442;-78
2021/03/20 06:29:43;;;;;;;67.63;34.95;;;2.30;95.90;;;;;;5052888;28;20311;-78
2021/03/20 06:32:23;;;;;;;64.47;33.53;;;2.30;96.10;;;;;;5053813;28;20053;-78
2021/03/20 06:35:12;;;;;;;50.90;29.27;;;2.30;96.20;;;;;;5053997;28;20032;-79
2021/03/20 06:37:41;;;;;;;46.92;26.60;;;2.30;96.30;;;;;;5052810;28;20066;-78
2021/03/20 06:40:28;;;;;;;45.58;24.05;;;2.30;96.30;;;;;;5053830;28;20017;-79
2021/03/20 06:42:54;;;;;;;43.58;24.63;;;2.40;96.20;;;;;;5052591;28;20076;-79
2021/03/20 06:45:25;;;;;;;38.55;21.80;;;2.50;96.20;;;;;;5052749;28;20056;-78
2021/03/20 06:47:54;;;;;;;41.42;24.52;;;2.50;96.10;;;;;;5052970;28;20451;-78
2021/03/20 06:50:27;;;;;;;36.53;21.80;;;2.60;96.00;;;;;;5053158;28;20562;-78
2021/03/20 06:52:57;;;;;;;47.47;26.15;;;2.70;95.90;;;;;;5053589;28;20044;-78
2021/03/20 06:55:29;;;;;;;41.97;24.48;;;2.70;95.80;;;;;;5051846;28;20028;-77
2021/03/20 06:57:55;;;;;;;68.93;41.78;;;2.80;95.80;;;;;;5047680;28;20036;-76
2021/03/20 07:00:28;;;;;;;63.17;36.83;;;2.80;95.70;;;;;;5033659;28;20014;-79
2021/03/20 07:03:15;;;;;;;52.88;30.92;;;2.90;96.00;;;;;;5032437;28;20031;-79
2021/03/20 07:06:07;;;;;;;54.80;32.97;;;2.80;95.70;;;;;;5033160;28;20031;-80
2021/03/20 07:08:47;;;;;;;45.95;25.73;;;2.80;95.60;;;;;;5031473;28;20471;-80
2021/03/20 07:11:27;;;;;;;35.97;22.95;;;2.90;95.50;;;;;;5031368;28;20080;-80
2021/03/20 07:14:00;;;;;;;38.97;24.38;;;2.90;95.60;;;;;;5033412;28;20137;-80
2021/03/20 07:16:28;;;;;;;36.08;22.58;;;2.90;95.50;;;;;;5031605;28;20044;-78
2021/03/20 07:19:04;;;;;;;35.38;19.40;;;2.90;95.40;;;;;;5031926;28;20029;-81
2021/03/20 07:21:40;;;;;;;32.95;20.10;;;2.90;95.40;;;;;;5031567;28;20382;-82
2021/03/20 07:24:43;;;;;;;37.47;22.13;;;2.90;95.20;;;;;;5031734;28;20028;-80
2021/03/20 07:27:15;;;;;;;43.97;22.92;;;2.90;95.30;;;;;;5031397;28;20116;-81
2021/03/20 07:30:04;;;;;;;40.42;23.33;;;2.90;95.40;;;;;;5031972;28;20029;-81
2021/03/20 07:32:30;;;;;;;59.13;31.10;;;2.80;95.40;;;;;;5032461;28;20118;-81
2021/03/20 07:35:18;;;;;;;46.00;27.45;;;2.70;95.50;;;;;;5031344;28;20064;-81
2021/03/20 07:37:43;;;;;;;55.55;29.55;;;2.60;95.70;;;;;;5024376;28;20032;-82
2021/03/20 07:40:33;;;;;;;61.03;31.63;;;2.60;95.90;;;;;;5032222;28;20018;-81
2021/03/20 07:43:21;;;;;;;56.55;30.27;;;2.50;96.00;;;;;;5030739;28;20065;-82
2021/03/20 07:46:04;;;;;;;78.28;39.75;;;2.40;96.10;;;;;;5031131;28;20033;-82
2021/03/20 07:48:29;;;;;;;47.47;28.15;;;2.40;96.20;;;;;;5034148;28;20101;-82
2021/03/20 07:51:16;;;;;;;46.67;26.75;;;2.50;96.30;;;;;;5033316;28;20124;-82
2021/03/20 07:53:48;;;;;;;40.65;23.00;;;2.70;95.90;;;;;;5031690;28;20112;-82
2021/03/20 07:56:20;;;;;;;40.47;24.30;;;2.70;95.70;;;;;;5032471;28;20044;-82
2021/03/20 07:59:07;;;;;;;55.90;30.60;;;2.70;95.60;;;;;;5032908;28;20018;-81
2021/03/20 08:01:36;;;;;;;38.50;21.67;;;2.70;95.70;;;;;;5036357;28;20113;-82
2021/03/20 08:04:08;;;;;;;40.95;21.92;;;2.70;95.70;;;;;;5032119;28;20025;-82
2021/03/20 08:06:49;;;;;;;44.85;25.77;;;2.80;95.70;;;;;;5033647;28;20017;-81
2021/03/20 08:09:22;;;;;;;34.60;20.63;;;2.80;95.70;;;;;;5032389;28;20034;-81
2021/03/20 08:11:58;;;;;;;35.13;20.92;;;2.80;95.50;;;;;;5033255;28;20021;-81
2021/03/20 08:14:27;;;;;;;40.00;22.63;;;2.90;95.50;;;;;;5032622;28;20414;-81
2021/03/20 08:16:52;;;;;;;37.95;21.27;;;2.90;95.50;;;;;;5033661;28;20021;-81
2021/03/20 08:19:20;;;;;;;30.08;17.95;;;2.80;95.50;;;;;;5033720;28;20028;-81
2021/03/20 08:22:09;;;;;;;36.35;19.75;;;2.90;95.40;;;;;;5032108;28;20025;-81
2021/03/20 08:25:04;;;;;;;41.65;22.55;;;2.90;95.40;;;;;;5033537;28;20067;-81
2021/03/20 08:27:56;;;;;;;51.75;28.23;;;2.80;95.70;;;;;;5031439;28;20033;-81
2021/03/20 08:30:34;;;;;;;40.85;24.17;;;2.80;95.60;;;;;;5033204;28;20021;-81
2021/03/20 08:33:15;;;;;;;46.58;26.73;;;2.80;95.60;;;;;;5033107;28;20502;-81
2021/03/20 08:35:54;;;;;;;34.03;19.48;;;2.90;95.50;;;;;;5033360;28;20053;-81
2021/03/20 08:38:38;;;;;;;45.40;25.15;;;2.90;95.70;;;;;;5033179;28;20041;-81
2021/03/20 08:41:32;;;;;;;26.65;16.48;;;2.90;95.70;;;;;;5032805;28;20021;-81
2021/03/20 08:44:07;;;;;;;33.67;17.23;;;2.90;95.40;;;;;;5048462;28;20067;-81
2021/03/20 08:46:44;;;;;;;23.65;15.75;;;2.90;95.20;;;;;;5055405;28;20056;-81
2021/03/20 08:49:46;;;;;;;16.88;11.68;;;2.70;95.60;;;;;;5052862;28;20036;-82
2021/03/20 08:52:36;;;;;;;22.23;11.18;;;2.70;95.70;;;;;;5032069;28;20033;-81
2021/03/20 08:55:37;;;;;;;13.90;9.25;;;2.60;95.90;;;;;;5031949;28;20440;-83
2021/03/20 08:58:31;;;;;;;20.17;12.13;;;2.50;96.10;;;;;;5031793;28;20353;-82
2021/03/20 09:01:00;;;;;;;19.08;11.98;;;2.50;96.20;;;;;;5029947;28;20025;-83
2021/03/20 09:03:41;;;;;;;18.67;10.00;;;2.40;96.30;;;;;;5033874;28;20064;-82
2021/03/20 09:06:38;;;;;;;20.70;11.85;;;2.40;96.50;;;;;;5056460;28;20086;-83
2021/03/20 09:09:32;;;;;;;18.45;10.10;;;2.40;96.60;;;;;;5055328;28;20036;-83
2021/03/20 09:12:07;;;;;;;19.40;11.45;;;2.50;96.40;;;;;;5055757;28;20025;-83
2021/03/20 09:14:45;;;;;;;19.63;12.15;;;2.40;96.50;;;;;;5056316;28;20021;-83
2021/03/20 09:17:16;;;;;;;19.98;13.48;;;2.40;96.60;;;;;;5055272;28;20017;-84
2021/03/20 09:19:59;;;;;;;19.95;14.55;;;2.20;96.80;;;;;;5057714;28;20021;-83
2021/03/20 09:22:32;;;;;;;18.95;13.70;;;2.10;96.90;;;;;;5056861;28;20029;-82
2021/03/20 09:25:19;;;;;;;20.13;14.43;;;2.30;96.70;;;;;;5057010;28;20017;-82
2021/03/20 09:28:14;;;;;;;22.38;15.48;;;2.40;96.30;;;;;;5056867;28;20382;-83
2021/03/20 09:30:46;;;;;;;24.00;17.20;;;2.40;96.00;;;;;;5056539;28;20021;-83
2021/03/20 09:33:32;;;;;;;22.48;16.13;;;2.20;96.50;;;;;;5056534;28;20044;-84
2021/03/20 09:36:24;;;;;;;21.45;15.00;;;2.20;96.60;;;;;;5055678;28;20032;-83
2021/03/20 09:38:52;;;;;;;25.17;16.48;;;2.30;96.70;;;;;;5050132;28;20029;-84
2021/03/20 09:41:21;;;;;;;20.60;14.57;;;2.30;96.60;;;;;;5054718;28;20040;-83
2021/03/20 09:43:58;;;;;;;22.65;16.23;;;2.30;96.30;;;;;;5054874;28;20029;-82
2021/03/20 09:46:39;;;;;;;20.95;14.95;;;2.30;96.30;;;;;;5056406;28;20029;-82
2021/03/20 09:49:08;;;;;;;31.95;21.30;;;2.30;96.40;;;;;;5056424;28;20021;-83
2021/03/20 09:51:52;;;;;;;34.42;24.65;;;2.20;96.50;;;;;;5054887;28;20032;-84
2021/03/20 09:54:28;;;;;;;22.02;16.38;;;2.30;96.40;;;;;;5055843;28;20178;-82
2021/03/20 09:57:22;;;;;;;18.58;13.27;;;2.20;96.40;;;;;;5056220;28;20112;-83
2021/03/20 09:59:48;;;;;;;22.58;18.77;;;2.30;96.30;;;;;;5055085;28;20466;-83
2021/03/20 10:02:21;;;;;;;21.45;15.40;;;2.20;96.30;;;;;;5051640;28;20204;-83
2021/03/20 10:05:25;;;;;;;19.10;13.45;;;2.10;96.70;;;;;;5049071;28;20029;-83
2021/03/20 10:08:16;;;;;;;17.58;11.40;;;2.10;96.80;;;;;;5037833;28;20596;-82
2021/03/20 10:10:45;;;;;;;22.58;13.60;;;2.10;96.40;;;;;;5050106;28;20032;-82
2021/03/20 10:13:23;;;;;;;19.33;12.65;;;2.10;96.80;;;;;;5051169;28;20029;-82
2021/03/20 10:16:01;;;;;;;15.68;10.15;;;2.20;96.60;;;;;;5053594;28;20017;-83
2021/03/20 10:18:30;;;;;;;18.13;11.43;;;2.00;96.50;;;;;;5052754;28;20024;-82
2021/03/20 10:21:01;;;;;;;12.57;8.68;;;2.00;96.80;;;;;;5054126;28;20017;-83
2021/03/20 10:23:42;;;;;;;12.18;8.55;;;2.00;96.60;;;;;;5054325;28;20425;-82
2021/03/20 10:26:23;;;;;;;15.25;8.18;;;1.90;96.90;;;;;;5051332;28;20032;-82
2021/03/20 10:29:12;;;;;;;11.73;8.43;;;2.00;96.80;;;;;;5051604;28;20017;-81
2021/03/20 10:31:43;;;;;;;11.52;8.38;;;2.10;96.70;;;;;;5045079;28;20041;-82
2021/03/20 10:34:12;;;;;;;13.20;8.77;;;2.10;96.70;;;;;;5052920;28;20036;-82
2021/03/20 10:36:47;;;;;;;12.25;9.05;;;2.00;96.80;;;;;;5047352;28;20423;-83
2021/03/20 10:39:41;;;;;;;18.90;12.27;;;2.10;96.80;;;;;;5040597;28;20376;-82
2021/03/20 10:42:14;;;;;;;14.90;10.13;;;1.90;97.10;;;;;;5048508;28;20072;-83
2021/03/20 10:44:43;;;;;;;16.60;12.15;;;2.00;97.00;;;;;;5045216;28;20020;-82
2021/03/20 10:47:21;;;;;;;26.05;19.20;;;1.90;97.30;;;;;;5051256;28;20021;-83
2021/03/20 10:50:11;;;;;;;15.90;11.23;;;2.10;97.20;;;;;;5038772;28;20029;-82
2021/03/20 10:52:42;;;;;;;15.02;9.82;;;2.00;97.30;;;;;;5043803;28;20522;-81
2021/03/20 10:55:21;;;;;;;14.70;10.50;;;2.00;97.10;;;;;;5041337;28;20088;-82
2021/03/20 10:57:48;;;;;;;15.20;10.48;;;1.90;97.40;;;;;;5039163;28;20483;-83
2021/03/20 11:00:20;;;;;;;14.68;10.07;;;1.90;97.50;;;;;;5040755;28;20033;-83
2021/03/20 11:02:46;;;;;;;15.95;9.90;;;2.00;97.40;;;;;;5043123;28;20071;-83
2021/03/20 11:05:21;;;;;;;12.60;9.00;;;2.00;97.20;;;;;;5044749;28;20483;-83
2021/03/20 11:07:54;;;;;;;10.85;7.97;;;2.10;96.90;;;;;;5044703;28;20028;-83
2021/03/20 11:10:35;;;;;;;16.10;10.25;;;2.20;96.40;;;;;;5050289;28;20051;-80
2021/03/20 11:13:05;;;;;;;14.40;8.93;;;2.20;96.30;;;;;;5050295;28;20108;-80
2021/03/20 11:15:33;;;;;;;14.20;8.50;;;2.10;95.90;;;;;;5049386;28;20104;-80
2021/03/20 11:18:01;;;;;;;12.80;8.88;;;2.10;96.10;;;;;;5050446;28;20025;-82
2021/03/20 11:20:39;;;;;;;11.68;8.20;;;2.20;96.30;;;;;;5051969;28;20096;-81
2021/03/20 11:23:06;;;;;;;11.60;8.45;;;2.20;96.20;;;;;;5052561;28;20087;-82
2021/03/20 11:25:39;;;;;;;13.60;9.43;;;2.10;96.30;;;;;;5052758;28;20128;-82
2021/03/20 11:28:08;;;;;;;11.40;7.85;;;2.20;96.40;;;;;;5053643;28;20017;-82
2021/03/20 11:30:39;;;;;;;12.20;8.32;;;2.20;96.30;;;;;;5049681;28;20025;-82
2021/03/20 11:33:06;;;;;;;10.00;7.40;;;2.30;96.30;;;;;;5053208;28;20087;-82
2021/03/20 11:35:41;;;;;;;12.40;7.75;;;2.30;96.30;;;;;;5051496;28;20067;-82
2021/03/20 11:38:12;;;;;;;17.08;9.95;;;2.20;96.10;;;;;;5049165;28;20025;-82
2021/03/20 11:40:41;;;;;;;13.45;9.38;;;2.30;96.10;;;;;;5048229;28;20021;-82
2021/03/20 11:43:29;;;;;;;73.88;35.28;;;2.30;96.30;;;;;;5050996;28;20021;-81
2021/03/20 11:46:12;;;;;;;21.40;13.18;;;2.30;96.30;;;;;;5048406;28;20402;-82
2021/03/20 11:48:42;;;;;;;19.17;12.30;;;2.40;95.90;;;;;;5043177;28;20024;-82
2021/03/20 11:51:27;;;;;;;12.05;8.15;;;2.40;96.10;;;;;;5044905;28;20048;-82
2021/03/20 11:53:57;;;;;;;13.25;9.15;;;2.50;96.20;;;;;;5046572;28;20099;-82
2021/03/20 11:56:34;;;;;;;15.52;10.13;;;2.50;96.30;;;;;;5049198;28;20017;-82
2021/03/20 11:59:24;;;;;;;13.65;9.10;;;2.60;96.20;;;;;;5049260;28;20025;-83
2021/03/20 12:01:49;;;;;;;20.00;11.40;;;2.70;96.30;;;;;;5044705;28;20032;-82
2021/03/20 12:04:28;;;;;;;13.15;8.98;;;2.70;96.20;;;;;;5047191;28;20467;-83
2021/03/20 12:07:19;;;;;;;12.50;8.82;;;2.80;96.10;;;;;;5049050;28;20100;-83
2021/03/20 12:09:45;;;;;;;12.18;8.10;;;3.00;96.10;;;;;;5047758;28;20100;-82
2021/03/20 12:12:10;;;;;;;11.93;7.88;;;3.00;95.80;;;;;;5050803;28;20021;-82
2021/03/20 12:14:49;;;;;;;13.57;8.43;;;2.90;95.70;;;;;;5048646;28;20025;-83
2021/03/20 12:17:25;;;;;;;19.00;11.35;;;3.00;95.40;;;;;;5050621;28;20032;-82
2021/03/20 12:20:06;;;;;;;18.02;10.85;;;2.90;95.50;;;;;;5046674;28;20041;-82
2021/03/20 12:22:47;;;;;;;18.23;11.98;;;3.00;95.50;;;;;;5032508;28;20512;-82
2021/03/20 12:25:19;;;;;;;14.13;9.98;;;3.00;95.20;;;;;;5040052;28;20033;-81
2021/03/20 12:27:46;;;;;;;15.23;11.00;;;2.90;95.30;;;;;;5041851;28;20441;-81
2021/03/20 12:30:17;;;;;;;17.98;10.68;;;2.80;95.20;;;;;;5034838;28;20049;-81
2021/03/20 12:32:45;;;;;;;13.82;9.60;;;2.90;95.60;;;;;;5036462;28;20050;-81
2021/03/20 12:35:22;;;;;;;15.45;11.30;;;2.90;95.90;;;;;;5044370;28;20021;-83
2021/03/20 12:37:49;;;;;;;18.73;10.77;;;2.90;95.60;;;;;;5052232;28;20063;-83
2021/03/20 12:40:18;;;;;;;12.60;8.68;;;3.00;95.80;;;;;;5053047;28;20045;-86
2021/03/20 12:42:44;;;;;;;11.05;8.57;;;3.00;95.60;;;;;;5052472;28;20040;-85
2021/03/20 12:45:19;;;;;;;13.77;9.38;;;3.10;95.50;;;;;;5044808;28;20368;-85
2021/03/20 12:47:44;;;;;;;15.23;10.82;;;2.90;95.50;;;;;;5033634;28;20057;-85
2021/03/20 12:50:10;;;;;;;18.70;11.13;;;2.70;96.00;;;;;;5032112;28;20060;-81
2021/03/20 12:52:37;;;;;;;14.82;10.98;;;2.70;96.10;;;;;;5032210;28;20076;-85
2021/03/20 12:55:05;;;;;;;18.50;13.68;;;2.50;96.50;;;;;;5032209;28;20056;-84
2021/03/20 12:57:33;;;;;;;22.95;14.35;;;2.70;96.40;;;;;;5050724;28;20403;-84
2021/03/20 13:00:00;;;;;;;29.92;15.48;;;2.50;96.60;;;;;;5051873;28;20039;-83
2021/03/20 13:02:26;;;;;;;18.95;11.68;;;2.60;96.50;;;;;;5033744;28;20061;-83
2021/03/20 13:04:52;;;;;;;19.08;13.10;;;2.50;96.40;;;;;;5032028;28;20060;-83
2021/03/20 13:07:20;;;;;;;21.88;13.75;;;2.50;96.60;;;;;;5037897;28;20029;-84
2021/03/20 13:09:48;;;;;;;16.17;10.80;;;2.50;96.40;;;;;;5033055;28;20104;-83
2021/03/20 13:12:14;;;;;;;12.88;9.00;;;2.50;96.60;;;;;;5045297;28;20501;-84
2021/03/20 13:14:41;;;;;;;18.83;13.02;;;2.70;96.40;;;;;;5034802;28;20037;-83
2021/03/20 13:17:08;;;;;;;19.48;13.25;;;2.70;96.40;;;;;;5051757;28;20021;-84
2021/03/20 13:19:34;;;;;;;14.25;11.10;;;2.80;96.40;;;;;;5052919;28;20021;-84
2021/03/20 13:22:00;;;;;;;42.05;24.27;;;2.90;96.30;;;;;;5051716;28;20021;-84